Time;durP1;ratioP1;P1;durP2;ratioP2;P2;SDS_P1;SDS_P2;PMS_P1;PMS_P2;Temp;Humidity;BMP_temperature;BMP_pressure;BME280_temperature;BME280_humidity;BME280_pressure;Samples;Min_cycle;Max_cycle;Signal;HPM_P1;HPM_P2
2021/01/19 00:26:27;;;;;;;;;;;;;;;9.96;59.24;101480.25;5871691;23;21148;-90
2021/01/19 00:28:55;;;;;;;;;;;;;;;10.15;58.36;101473.25;4925349;29;19927;-88
2021/01/19 00:31:31;;;;;;;;;;;;;;;10.43;57.89;101474.97;4941335;29;19919;-92
2021/01/19 00:33:59;;;;;;;;;;;;;;;9.73;59.12;101466.56;4942485;29;19919;-92
2021/01/19 00:40:02;;;;;;;;;;;;;;;9.57;59.91;101457.22;4927009;29;19941;-89
2021/01/19 00:42:36;;;;;;;;;;;;;;;9.69;59.35;101453.22;4942478;29;19920;-91
2021/01/19 00:58:01;;;;;;;;;;;;;;;9.12;60.48;101411.91;4945277;29;19997;-89
2021/01/19 01:00:34;;;;;;;;;;;;;;;9.51;60.15;101412.41;4929898;29;20014;-88
2021/01/19 01:09:39;;;;;;;;;;;;;;;9.30;61.49;101380.72;5276381;23;19926;-91
2021/01/19 01:12:42;;;;;;;;;;;;;;;9.00;63.00;101379.00;4949614;29;19965;-90
2021/01/19 01:18:30;;;;;;;;;;;;;;;;;;;;;
2021/01/19 01:52:22;;;;;;;;;;;;;;;;;;;;;
2021/01/19 01:55:06;;;;;;;;;;;;;;;8.58;65.86;101276.06;4968700;29;20440;-92
2021/01/19 02:01:14;;;;;;;;;;;;;;;8.74;65.37;101253.06;4928775;29;19925;-93
2021/01/19 02:23:53;;;;;;;;;;;;;;;9.00;64.43;101195.50;4880241;29;19932;-92
2021/01/19 02:29:46;;;;;;;;;;;;;;;8.38;66.13;101193.06;4988760;23;19957;-92
2021/01/19 02:32:43;;;;;;;;;;;;;;;;;;;;;
2021/01/19 02:35:50;;;;;;;;;;;;;;;;;;;;;
2021/01/19 02:52:53;;;;;;;;;;;;;;;8.76;66.69;101105.50;5592233;23;19931;-90
2021/01/19 02:59:05;;;;;;;;;;;;;;;8.19;68.50;101102.06;5273332;23;20137;31
2021/01/19 03:01:45;;;;;;;;;;;;;;;8.41;67.72;101077.94;4908993;29;19966;-91
2021/01/19 03:04:52;;;;;;;;;;;;;;;7.84;70.00;101076.28;4896004;29;19923;-89
2021/01/19 03:08:00;;;;;;;;;;;;;;;7.99;68.73;101073.97;4912259;29;19929;-91
2021/01/19 03:11:07;;;;;;;;;;;;;;;;;;;;;
2021/01/19 03:14:07;;;;;;;;;;;;;;;8.29;67.61;101046.91;4802157;29;19983;-92
2021/01/19 03:16:45;;;;;;;;;;;;;;;;;;;;;
2021/01/19 03:22:41;;;;;;;;;;;;;;;8.46;67.83;101043.63;4853002;29;19921;-91
2021/01/19 03:28:22;;;;;;;;;;;;;;;8.42;67.57;101041.94;4867692;29;19920;-91
2021/01/19 03:30:50;;;;;;;;;;;;;;;8.33;68.12;101013.53;4890550;29;19991;-90
2021/01/19 03:33:25;;;;;;;;;;;;;;;8.11;70.36;101024.16;4888932;29;19920;-92
2021/01/19 03:35:55;;;;;;;;;;;;;;;8.41;68.14;101012.34;4890433;29;19920;-92
2021/01/19 03:38:27;;;;;;;;;;;;;;;8.51;67.54;101003.94;4889223;29;19936;-90
2021/01/19 03:41:05;;;;;;;;;;;;;;;8.31;69.04;101004.59;4876458;29;19984;-90
2021/01/19 03:43:48;;;;;;;;;;;;;;;8.28;68.80;100985.84;4890741;29;20001;-91
2021/01/19 03:46:28;;;;;;;;;;;;;;;8.54;68.24;100985.88;4876611;29;19919;-91
2021/01/19 03:48:54;;;;;;;;;;;;;;;8.42;69.09;100982.63;4874626;29;20016;-90
2021/01/19 03:51:33;;;;;;;;;;;;;;;8.59;68.62;100978.47;4875176;29;19920;-91
2021/01/19 03:54:18;;;;;;;;;;;;;;;;;;;;;
2021/01/19 03:56:54;;;;;;;;;;;;;;;8.43;69.26;100970.94;4890225;29;20011;-92
2021/01/19 03:59:29;;;;;;;;;;;;;;;;;;;;;
2021/01/19 04:02:04;;;;;;;;;;;;;;;8.85;67.49;100954.09;4909527;29;20021;-90
2021/01/19 04:04:32;;;;;;;;;;;;;;;8.42;68.70;100947.59;4893511;29;19927;-93
2021/01/19 04:07:18;;;;;;;;;;;;;;;9.20;65.65;100943.72;4893697;29;19927;-92
2021/01/19 04:26:57;;;;;;;;;;;;;;;8.61;69.21;100885.78;5232044;23;19942;-94
2021/01/19 04:30:42;;;;;;;;;;;;;;;;;;;;;
2021/01/19 04:32:44;;;;;;;;;;;;;;;8.78;68.92;100866.25;4858546;29;20402;-92
2021/01/19 04:35:31;;;;;;;;;;;;;;;8.77;68.08;100890.59;4941902;29;19926;-92
2021/01/19 04:38:31;;;;;;;;;;;;;;;8.86;69.16;100863.25;4904639;29;19907;-92
2021/01/19 04:47:33;;;;;;;;;;;;;;;8.69;70.12;100872.00;4850852;29;19961;-92
2021/01/19 04:53:34;;;;;;;;;;;;;;;8.56;69.94;100849.16;4946539;29;19947;-92
2021/01/19 05:44:49;;;;;;;;;;;;;;;9.15;69.60;100654.25;4964408;29;19964;-90
2021/01/19 05:48:35;;;;;;;;;;;;;;;;;;;;;
2021/01/19 05:53:50;;;;;;;;;;;;;;;9.45;67.91;100613.31;5076678;23;19994;-92
2021/01/19 05:56:40;;;;;;;;;;;;;;;9.38;68.92;100601.03;4917382;29;19978;-91
2021/01/19 06:02:25;;;;;;;;;;;;;;;9.25;68.92;100605.25;4928108;29;19915;-92
2021/01/19 06:05:22;;;;;;;;;;;;;;;8.94;71.08;100596.72;4932855;29;19925;-94
2021/01/19 06:07:48;;;;;;;;;;;;;;;9.57;68.28;100574.91;4929199;29;19915;-91
2021/01/19 06:45:20;;;;;;;;;;;;;;;9.27;71.08;100484.56;5100518;23;19937;-89
2021/01/19 06:48:01;;;;;;;;;;;;;;;9.53;69.45;100486.88;4951383;29;19922;-90
2021/01/19 06:50:37;;;;;;;;;;;;;;;9.75;69.41;100477.72;4950606;29;19962;-89
2021/01/19 06:53:25;;;;;;;;;;;;;;;10.09;68.90;100462.50;4947548;29;20030;-90
2021/01/19 06:55:54;;;;;;;;;;;;;;;9.73;69.22;100450.78;4928093;29;19941;-89
2021/01/19 06:58:48;;;;;;;;;;;;;;;9.42;70.90;100464.94;4943959;29;19982;-89
2021/01/19 07:01:17;;;;;;;;;;;;;;;9.65;70.63;100479.16;4907534;29;19925;-90
2021/01/19 07:03:43;;;;;;;;;;;;;;;9.73;68.91;100480.47;4937241;29;19922;-87
2021/01/19 07:06:10;;;;;;;;;;;;;;;9.77;69.86;100451.50;4947130;29;19962;-86
2021/01/19 07:08:44;;;;;;;;;;;;;;;9.87;70.24;100443.78;4927613;29;20005;-89
2021/01/19 07:11:28;;;;;;;;;;;;;;;10.21;69.64;100444.75;4931259;29;19923;-90
2021/01/19 07:14:12;;;;;;;;;;;;;;;10.70;67.70;100438.56;4931117;29;19927;-92
2021/01/19 07:16:56;;;;;;;;;;;;;;;10.11;70.58;100439.84;4943723;29;20017;-88
2021/01/19 07:19:30;;;;;;;;;;;;;;;10.50;69.44;100427.00;4948099;29;19919;-86
2021/01/19 07:22:09;;;;;;;;;;;;;;;9.45;71.87;100424.28;4948044;29;19918;-88
2021/01/19 07:24:45;;;;;;;;;;;;;;;9.98;70.70;100424.31;4946645;29;19919;-88
2021/01/19 07:27:16;;;;;;;;;;;;;;;10.52;69.02;100421.50;4947638;29;20342;-88
2021/01/19 07:29:49;;;;;;;;;;;;;;;10.29;70.19;100421.75;4947548;29;19919;-89
2021/01/19 07:32:18;;;;;;;;;;;;;;;10.35;70.19;100444.06;4945907;29;19986;-86
2021/01/19 07:34:44;;;;;;;;;;;;;;;10.28;69.72;100420.03;4955853;29;19923;-87
2021/01/19 07:37:09;;;;;;;;;;;;;;;10.18;71.20;100413.34;4922927;29;19926;-86
2021/01/19 07:39:37;;;;;;;;;;;;;;;9.97;72.22;100419.91;4923839;29;19919;-88
2021/01/19 07:47:36;;;;;;;;;;;;;;;10.24;71.20;100415.72;4939299;29;19927;-91
2021/01/19 07:50:12;;;;;;;;;;;;;;;10.61;70.06;100416.50;4923894;29;19929;-89
2021/01/19 07:52:47;;;;;;;;;;;;;;;10.34;71.11;100420.66;4923908;29;19923;-89
2021/01/19 07:55:16;;;;;;;;;;;;;;;10.24;71.53;100412.16;4924166;29;19919;-88
2021/01/19 07:57:43;;;;;;;;;;;;;;;10.15;72.65;100421.63;4922699;29;19919;-86
2021/01/19 08:00:09;;;;;;;;;;;;;;;10.22;71.62;100423.06;4923017;29;19926;-87
2021/01/19 08:02:37;;;;;;;;;;;;;;;10.66;71.01;100423.47;4923255;29;19951;-89
2021/01/19 08:05:14;;;;;;;;;;;;;;;10.46;71.07;100431.72;4924398;29;19919;-90
2021/01/19 08:07:45;;;;;;;;;;;;;;;10.99;69.94;100426.13;4950847;23;19927;-92
2021/01/19 08:10:18;;;;;;;;;;;;;;;10.80;69.54;100431.69;4939889;29;19918;-91
2021/01/19 08:12:43;;;;;;;;;;;;;;;10.87;71.75;100414.19;4939790;29;19918;-91
2021/01/19 08:15:09;;;;;;;;;;;;;;;10.95;68.99;100421.84;4940451;29;20678;-89
2021/01/19 08:17:53;;;;;;;;;;;;;;;11.27;69.52;100411.91;4942304;29;19919;-89
2021/01/19 08:20:34;;;;;;;;;;;;;;;10.88;71.40;100423.16;4938414;29;19921;-86
2021/01/19 08:23:12;;;;;;;;;;;;;;;11.43;69.56;100405.59;4938861;29;20129;-88
2021/01/19 08:25:39;;;;;;;;;;;;;;;11.50;68.32;100410.59;4939573;29;19922;-86
2021/01/19 08:28:05;;;;;;;;;;;;;;;11.21;70.27;100409.53;4940630;29;19918;-88
2021/01/19 08:30:45;;;;;;;;;;;;;;;10.84;71.69;100419.75;4938463;29;19926;-86
2021/01/19 08:33:11;;;;;;;;;;;;;;;10.67;72.52;100411.69;4940605;29;19923;-89
2021/01/19 08:35:37;;;;;;;;;;;;;;;11.18;71.56;100426.81;4941217;23;20407;-85
2021/01/19 08:38:02;;;;;;;;;;;;;;;11.52;69.66;100418.63;4923009;29;20018;-89
2021/01/19 08:40:54;;;;;;;;;;;;;;;11.59;70.21;100409.13;4923308;29;19919;-87
2021/01/19 08:43:20;;;;;;;;;;;;;;;11.19;71.34;100403.34;4921156;29;19918;-90
2021/01/19 08:45:46;;;;;;;;;;;;;;;11.46;69.78;100409.00;5157004;23;20393;-87
2021/01/19 08:48:14;;;;;;;;;;;;;;;11.72;69.36;100397.59;4961387;23;19962;-88
2021/01/19 09:01:07;;;;;;;;;;;;;;;11.41;71.00;100421.06;4939522;29;19934;-88
2021/01/19 09:03:35;;;;;;;;;;;;;;;11.55;70.48;100402.19;4911092;29;19919;-88
2021/01/19 09:06:08;;;;;;;;;;;;;;;11.85;69.74;100409.44;4906127;29;19930;-88
2021/01/19 09:08:35;;;;;;;;;;;;;;;12.43;68.69;100421.31;4888651;29;19962;-89
2021/01/19 09:11:09;;;;;;;;;;;;;;;11.42;71.46;100409.28;4923379;29;19919;-88
2021/01/19 09:13:41;;;;;;;;;;;;;;;12.20;69.11;100441.72;4922228;29;19975;-89
2021/01/19 09:16:06;;;;;;;;;;;;;;;12.18;69.77;100400.25;4916269;29;19919;-85
2021/01/19 09:18:33;;;;;;;;;;;;;;;12.39;69.88;100420.66;4923025;29;19973;-90
2021/01/19 09:23:51;;;;;;;;;;;;;;;13.16;67.14;100408.56;4965539;28;19922;-88
2021/01/19 09:26:19;;;;;;;;;;;;;;;12.99;68.34;100404.25;4959199;28;19922;-89
2021/01/19 09:28:52;;;;;;;;;;;;;;;12.56;69.57;100432.25;4961984;28;19922;-87
2021/01/19 09:31:24;;;;;;;;;;;;;;;12.52;70.53;100415.31;4947699;29;19918;-90
2021/01/19 09:33:51;;;;;;;;;;;;;;;12.93;68.68;100406.34;4942409;29;20005;-87
2021/01/19 09:36:16;;;;;;;;;;;;;;;13.09;68.30;100414.41;4943210;29;20320;-86
2021/01/19 09:38:43;;;;;;;;;;;;;;;12.19;71.16;100404.72;4926589;29;19931;-86
2021/01/19 09:41:12;;;;;;;;;;;;;;;12.93;68.99;100419.06;4925394;29;20009;-86
2021/01/19 09:43:37;;;;;;;;;;;;;;;12.41;71.82;100429.53;4942534;29;20041;-85
2021/01/19 09:46:05;;;;;;;;;;;;;;;13.21;68.55;100423.59;4942932;29;20388;-87
2021/01/19 09:48:31;;;;;;;;;;;;;;;12.93;69.00;100429.94;4943476;29;19941;-88
2021/01/19 09:50:57;;;;;;;;;;;;;;;13.08;68.34;100426.22;4953679;28;20592;-88
2021/01/19 09:53:23;;;;;;;;;;;;;;;13.43;67.62;100431.22;4959701;28;20001;-89
2021/01/19 09:55:49;;;;;;;;;;;;;;;13.40;68.31;100438.72;4940236;29;20261;-87
2021/01/19 09:58:19;;;;;;;;;;;;;;;12.57;70.46;100434.88;4950542;28;19971;-90
2021/01/19 10:00:44;;;;;;;;;;;;;;;13.11;69.79;100438.75;4925817;29;19929;-89
2021/01/19 10:03:15;;;;;;;;;;;;;;;13.42;68.38;100434.94;4925921;29;20013;-88
2021/01/19 10:05:44;;;;;;;;;;;;;;;12.49;70.27;100422.78;4950723;28;20136;-91
2021/01/19 10:08:41;;;;;;;;;;;;;;;13.20;69.21;100451.72;4941087;29;19973;-91
2021/01/19 10:11:07;;;;;;;;;;;;;;;13.37;68.57;100449.78;5005094;23;20459;-90
2021/01/19 10:13:34;;;;;;;;;;;;;;;13.15;69.75;100461.13;4952534;23;20029;-88
2021/01/19 10:16:19;;;;;;;;;;;;;;;13.23;69.81;100458.81;4941348;29;19951;-91
2021/01/19 10:18:48;;;;;;;;;;;;;;;12.99;70.46;100461.25;4943600;29;20393;-89
2021/01/19 10:24:22;;;;;;;;;;;;;;;13.46;68.79;100441.00;4939399;29;20288;-90
2021/01/19 10:27:03;;;;;;;;;;;;;;;13.19;69.11;100462.69;4940858;29;19922;-84
2021/01/19 10:29:29;;;;;;;;;;;;;;;13.27;68.84;100466.66;4940338;29;19923;-87
2021/01/19 10:31:59;;;;;;;;;;;;;;;13.32;69.68;100452.75;4940545;29;19925;-90
2021/01/19 10:34:24;;;;;;;;;;;;;;;12.88;70.40;100470.09;4939517;29;20051;-88
2021/01/19 10:36:54;;;;;;;;;;;;;;;13.44;68.92;100459.28;4939338;29;19957;-88
2021/01/19 10:39:20;;;;;;;;;;;;;;;13.05;70.38;100460.88;4939544;29;19926;-86
2021/01/19 10:41:46;;;;;;;;;;;;;;;12.72;71.09;100468.31;4940756;29;19926;-88
2021/01/19 10:44:12;;;;;;;;;;;;;;;13.53;68.63;100465.97;4930439;29;19922;-85
2021/01/19 10:46:37;;;;;;;;;;;;;;;13.26;68.55;100472.19;4921622;29;20278;-86
2021/01/19 10:49:10;;;;;;;;;;;;;;;13.65;67.74;100470.56;4920427;29;19919;-83
2021/01/19 10:51:36;;;;;;;;;;;;;;;13.25;69.15;100473.16;4939549;29;19919;-83
2021/01/19 10:54:05;;;;;;;;;;;;;;;13.12;70.26;100465.81;4940557;29;19974;-88
2021/01/19 10:56:30;;;;;;;;;;;;;;;13.66;68.22;100472.28;4938483;29;20365;-83
2021/01/19 10:58:58;;;;;;;;;;;;;;;12.83;70.26;100459.53;4937990;29;20014;-90
2021/01/19 11:01:27;;;;;;;;;;;;;;;13.29;69.35;100463.84;4938721;29;19919;-85
2021/01/19 11:03:53;;;;;;;;;;;;;;;13.65;68.51;100468.72;4937466;29;19919;-85
2021/01/19 11:06:19;;;;;;;;;;;;;;;13.92;68.21;100476.00;4943818;29;19919;-87
2021/01/19 11:08:45;;;;;;;;;;;;;;;13.09;70.43;100482.28;4940668;29;20036;-86
2021/01/19 11:11:11;;;;;;;;;;;;;;;14.30;66.62;100469.78;4937873;29;19970;-86
2021/01/19 11:13:36;;;;;;;;;;;;;;;13.34;68.45;100469.84;4933105;29;20254;-87
2021/01/19 11:16:01;;;;;;;;;;;;;;;14.14;66.74;100472.66;4939092;29;19925;-87
2021/01/19 11:18:27;;;;;;;;;;;;;;;14.40;66.12;100482.75;4940102;29;19923;-86
2021/01/19 11:20:52;;;;;;;;;;;;;;;13.09;69.47;100487.72;4939871;29;20006;-86
2021/01/19 11:23:17;;;;;;;;;;;;;;;13.23;68.82;100475.09;4943699;29;19918;-83
2021/01/19 11:25:42;;;;;;;;;;;;;;;13.74;67.52;100491.72;4942972;29;19961;-88
2021/01/19 11:28:08;;;;;;;;;;;;;;;13.62;67.58;100477.06;4939395;29;20261;-84
2021/01/19 11:30:33;;;;;;;;;;;;;;;13.55;67.76;100485.75;4941283;29;19919;-89
2021/01/19 11:32:59;;;;;;;;;;;;;;;13.68;67.86;100481.25;4938874;29;19919;-88
2021/01/19 11:35:24;;;;;;;;;;;;;;;14.02;65.67;100497.13;4931698;29;19921;-90
2021/01/19 11:37:50;;;;;;;;;;;;;;;13.85;66.83;100496.41;4919315;29;19926;-86
2021/01/19 11:40:15;;;;;;;;;;;;;;;14.21;65.69;100499.50;4918311;29;19963;-84
2021/01/19 11:42:40;;;;;;;;;;;;;;;13.30;68.63;100503.63;4934573;29;19926;-86
2021/01/19 11:45:06;;;;;;;;;;;;;;;13.86;66.68;100489.13;4938072;29;19923;-89
2021/01/19 11:47:31;;;;;;;;;;;;;;;13.96;66.08;100492.97;4939489;29;19922;-88
2021/01/19 11:49:56;;;;;;;;;;;;;;;13.16;69.53;100490.91;4938294;29;20304;-87
2021/01/19 11:52:21;;;;;;;;;;;;;;;13.60;66.88;100497.16;4938074;29;20050;-85
2021/01/19 11:54:49;;;;;;;;;;;;;;;13.91;66.43;100493.28;4938997;29;19923;-87
2021/01/19 11:57:20;;;;;;;;;;;;;;;13.21;68.22;100493.31;4939478;29;20380;-89
2021/01/19 11:59:46;;;;;;;;;;;;;;;13.78;66.85;100492.34;4938563;29;19926;-88
2021/01/19 12:02:11;;;;;;;;;;;;;;;13.28;68.28;100500.97;4939266;29;19919;-88
2021/01/19 12:04:37;;;;;;;;;;;;;;;13.94;66.11;100506.69;4939105;29;19930;-87
2021/01/19 12:07:07;;;;;;;;;;;;;;;14.00;65.53;100491.81;4940318;29;19918;-87
2021/01/19 12:09:32;;;;;;;;;;;;;;;13.93;65.95;100501.34;4926286;29;20009;-87
2021/01/19 12:11:58;;;;;;;;;;;;;;;14.30;64.98;100507.00;4921822;29;19997;-89
2021/01/19 12:14:23;;;;;;;;;;;;;;;13.89;65.97;100511.56;4921277;29;19923;-87
2021/01/19 12:16:52;;;;;;;;;;;;;;;14.48;64.23;100497.56;4931687;29;20319;-88
2021/01/19 12:19:17;;;;;;;;;;;;;;;13.89;66.38;100505.22;4940605;29;19954;-91
2021/01/19 12:21:49;;;;;;;;;;;;;;;14.51;64.80;100502.78;4941035;29;19919;-88
2021/01/19 12:24:15;;;;;;;;;;;;;;;13.35;68.28;100504.22;4940727;29;19926;-87
2021/01/19 12:26:45;;;;;;;;;;;;;;;14.22;64.66;100512.97;4940397;29;20099;-89
2021/01/19 12:29:11;;;;;;;;;;;;;;;13.80;65.96;100507.59;4940830;29;20424;-89
2021/01/19 12:31:36;;;;;;;;;;;;;;;13.59;66.55;100487.28;4941152;29;19986;-91
2021/01/19 12:34:01;;;;;;;;;;;;;;;13.20;67.92;100506.03;4938496;29;19918;-88
2021/01/19 12:36:27;;;;;;;;;;;;;;;13.46;67.63;100498.09;4939396;29;19923;-87
2021/01/19 12:38:52;;;;;;;;;;;;;;;14.44;63.98;100495.16;4939125;29;19923;-86
2021/01/19 12:41:17;;;;;;;;;;;;;;;13.95;65.94;100502.09;4938294;29;19926;-87
2021/01/19 12:43:43;;;;;;;;;;;;;;;13.18;68.36;100501.66;4938039;29;19927;-86
2021/01/19 12:46:12;;;;;;;;;;;;;;;14.32;64.86;100502.31;4935706;29;19926;-86
2021/01/19 12:48:38;;;;;;;;;;;;;;;13.75;65.94;100509.78;4933294;29;20009;-83
2021/01/19 12:51:03;;;;;;;;;;;;;;;13.60;66.65;100500.78;4923138;29;20055;-84
2021/01/19 12:53:28;;;;;;;;;;;;;;;13.55;66.88;100496.63;4922625;29;20004;-85
2021/01/19 12:55:54;;;;;;;;;;;;;;;13.60;66.98;100503.50;4921933;29;19919;-85
2021/01/19 12:58:19;;;;;;;;;;;;;;;13.03;68.98;100500.81;4937440;29;20007;-84
2021/01/19 13:00:44;;;;;;;;;;;;;;;13.38;67.51;100492.28;4940197;29;19926;-85
2021/01/19 13:03:10;;;;;;;;;;;;;;;13.44;67.43;100500.91;4925144;29;19991;-85
2021/01/19 13:05:36;;;;;;;;;;;;;;;13.28;67.83;100500.13;4921499;29;20302;-85
2021/01/19 13:08:01;;;;;;;;;;;;;;;13.15;68.71;100496.44;4921373;29;19919;-86
2021/01/19 13:10:26;;;;;;;;;;;;;;;13.28;67.44;100489.25;4924441;29;19923;-87
2021/01/19 13:12:51;;;;;;;;;;;;;;;14.09;65.39;100488.44;4924660;29;19931;-88
2021/01/19 13:15:17;;;;;;;;;;;;;;;13.30;67.47;100490.03;4923949;29;19934;-84
2021/01/19 13:17:43;;;;;;;;;;;;;;;13.50;67.63;100490.59;4932402;29;19931;-84
2021/01/19 13:20:08;;;;;;;;;;;;;;;13.41;67.05;100501.09;4928716;29;20377;-84
2021/01/19 13:22:34;;;;;;;;;;;;;;;13.96;66.04;100492.97;4935424;29;19919;-83
2021/01/19 13:25:01;;;;;;;;;;;;;;;13.59;66.39;100496.31;4923348;29;19926;-81
2021/01/19 13:27:27;;;;;;;;;;;;;;;13.68;65.82;100494.84;4919331;29;20016;-82
2021/01/19 13:29:53;;;;;;;;;;;;;;;13.30;66.85;100474.59;4919182;29;19919;-83
2021/01/19 13:32:19;;;;;;;;;;;;;;;13.57;66.64;100475.63;4917088;29;20301;-83
2021/01/19 13:34:44;;;;;;;;;;;;;;;14.09;64.68;100476.72;4924300;29;19919;-84
2021/01/19 13:37:09;;;;;;;;;;;;;;;13.50;66.10;100471.56;4920835;29;20747;-82
2021/01/19 13:39:35;;;;;;;;;;;;;;;13.96;64.86;100499.28;4932971;29;19927;-82
2021/01/19 13:42:00;;;;;;;;;;;;;;;13.67;65.38;100478.63;4935842;29;19937;-81
2021/01/19 13:44:26;;;;;;;;;;;;;;;14.23;63.79;100483.91;4934069;29;19930;-83
2021/01/19 13:46:53;;;;;;;;;;;;;;;13.69;65.19;100485.69;4930157;29;19923;-83
2021/01/19 13:49:19;;;;;;;;;;;;;;;14.33;63.52;100479.59;4931673;29;19973;-82
2021/01/19 13:51:45;;;;;;;;;;;;;;;14.19;63.79;100496.84;4927860;29;19922;-82
2021/01/19 13:54:11;;;;;;;;;;;;;;;14.23;64.08;100473.03;4925206;29;19973;-83
2021/01/19 13:56:38;;;;;;;;;;;;;;;14.45;64.12;100475.16;4922967;29;20067;-80
2021/01/19 13:59:03;;;;;;;;;;;;;;;13.22;66.90;100467.91;4924993;29;19966;-81
2021/01/19 14:01:30;;;;;;;;;;;;;;;14.52;63.82;100479.16;4921584;29;20017;-85
2021/01/19 14:03:55;;;;;;;;;;;;;;;14.09;63.78;100474.84;4919700;29;20021;-85
2021/01/19 14:06:21;;;;;;;;;;;;;;;14.38;63.58;100482.84;4926000;29;20033;-85
2021/01/19 14:08:46;;;;;;;;;;;;;;;14.39;62.51;100490.03;4928965;29;20017;-85
2021/01/19 14:11:11;;;;;;;;;;;;;;;14.36;63.44;100490.25;4937545;29;19918;-86
2021/01/19 14:13:37;;;;;;;;;;;;;;;14.23;63.38;100475.75;4924376;29;19943;-85
2021/01/19 14:16:14;;;;;;;;;;;;;;;14.14;62.78;100475.38;4933762;29;19945;-84
2021/01/19 14:18:40;;;;;;;;;;;;;;;13.89;63.64;100472.59;4939665;29;19949;-82
2021/01/19 14:21:12;;;;;;;;;;;;;;;14.18;62.86;100474.22;4936658;29;20020;-86
2021/01/19 14:23:40;;;;;;;;;;;;;;;13.47;65.18;100473.53;4942047;29;19931;-85
2021/01/19 14:26:05;;;;;;;;;;;;;;;14.24;63.47;100475.66;4939463;29;19919;-85
2021/01/19 14:28:30;;;;;;;;;;;;;;;14.46;62.63;100471.44;4946294;29;20284;-86
2021/01/19 14:30:55;;;;;;;;;;;;;;;14.35;62.81;100480.34;4945202;29;20351;-84
2021/01/19 14:33:21;;;;;;;;;;;;;;;13.81;63.45;100484.88;4946193;29;19967;-86
2021/01/19 14:35:46;;;;;;;;;;;;;;;14.11;63.45;100481.03;4939660;29;20017;-85
2021/01/19 14:38:11;;;;;;;;;;;;;;;13.80;63.36;100487.72;4937698;29;19927;-85
2021/01/19 14:40:37;;;;;;;;;;;;;;;13.60;63.83;100487.19;4939185;29;19950;-84
2021/01/19 14:43:02;;;;;;;;;;;;;;;14.14;62.65;100486.28;4945637;29;19918;-86
2021/01/19 14:45:27;;;;;;;;;;;;;;;14.52;61.84;100492.75;4935923;29;19922;-85
2021/01/19 14:47:56;;;;;;;;;;;;;;;13.23;64.94;100515.84;4929207;29;19923;-84
2021/01/19 14:50:21;;;;;;;;;;;;;;;13.18;64.72;100527.00;4936959;29;19967;-84
2021/01/19 14:52:48;;;;;;;;;;;;;;;13.63;64.11;100507.84;4945320;29;19931;-89
2021/01/19 14:55:14;;;;;;;;;;;;;;;13.16;65.40;100511.78;4947865;29;19919;-88
2021/01/19 15:00:15;;;;;;;;;;;;;;;13.45;63.83;100497.22;5115330;23;19934;-89
2021/01/19 15:02:41;;;;;;;;;;;;;;;13.62;63.23;100504.25;4948232;29;19961;-87
2021/01/19 15:05:07;;;;;;;;;;;;;;;13.10;65.20;100523.88;4934737;29;20340;-87
2021/01/19 15:07:33;;;;;;;;;;;;;;;12.68;66.07;100512.03;4938778;29;20567;-85
2021/01/19 15:10:02;;;;;;;;;;;;;;;13.07;65.19;100544.00;4940246;29;19918;-87
2021/01/19 15:12:28;;;;;;;;;;;;;;;12.68;66.30;100540.06;4937374;29;20320;-86
2021/01/19 15:14:54;;;;;;;;;;;;;;;12.56;66.71;100519.09;4931808;29;19970;-88
2021/01/19 15:17:20;;;;;;;;;;;;;;;12.93;65.47;100533.09;4929864;29;19919;-89
2021/01/19 15:19:46;;;;;;;;;;;;;;;13.38;64.57;100517.59;4930752;29;19946;-84
2021/01/19 15:22:11;;;;;;;;;;;;;;;13.30;63.97;100514.50;4943922;29;19923;-87
2021/01/19 15:24:40;;;;;;;;;;;;;;;13.08;65.03;100521.28;4927787;29;20403;-83
2021/01/19 15:27:06;;;;;;;;;;;;;;;12.57;65.98;100515.41;4927833;29;19919;-83
2021/01/19 15:29:31;;;;;;;;;;;;;;;13.21;64.62;100517.78;4938677;29;20014;-84
2021/01/19 15:31:56;;;;;;;;;;;;;;;13.67;63.17;100517.53;4922547;29;19954;-88
2021/01/19 15:34:26;;;;;;;;;;;;;;;13.00;65.00;100531.75;4922939;29;19958;-86
2021/01/19 15:37:02;;;;;;;;;;;;;;;13.09;64.19;100533.03;4922331;29;20265;-84
2021/01/19 15:39:34;;;;;;;;;;;;;;;13.46;63.77;100534.28;4937174;29;19922;-88
2021/01/19 15:42:03;;;;;;;;;;;;;;;12.79;65.48;100530.38;4942668;29;19918;-87
2021/01/19 15:44:32;;;;;;;;;;;;;;;13.16;64.33;100539.78;4942110;29;20365;-87
2021/01/19 15:46:57;;;;;;;;;;;;;;;13.51;63.40;100541.25;4942336;29;20013;-88
2021/01/19 15:49:22;;;;;;;;;;;;;;;12.94;65.00;100549.31;4943510;29;20479;-90
2021/01/19 15:51:54;;;;;;;;;;;;;;;13.44;63.26;100544.38;4944551;29;19919;-89
2021/01/19 15:54:22;;;;;;;;;;;;;;;13.54;63.13;100524.75;4942838;29;19922;-85
2021/01/19 15:56:49;;;;;;;;;;;;;;;13.54;62.97;100535.63;4936417;29;19918;-87
2021/01/19 15:59:15;;;;;;;;;;;;;;;13.80;62.05;100537.50;4942853;29;19954;-89
2021/01/19 16:01:41;;;;;;;;;;;;;;;13.74;61.88;100534.31;4943468;29;19974;-87
2021/01/19 16:04:07;;;;;;;;;;;;;;;13.03;63.85;100526.13;4942766;29;19977;-86
2021/01/19 16:06:33;;;;;;;;;;;;;;;13.86;61.43;100535.34;4941960;29;19926;-87
2021/01/19 16:08:58;;;;;;;;;;;;;;;12.77;64.94;100535.88;4930024;29;19942;-87
2021/01/19 16:11:24;;;;;;;;;;;;;;;12.36;65.71;100532.03;4939155;29;19925;-86
2021/01/19 16:13:53;;;;;;;;;;;;;;;13.20;63.89;100537.78;4922722;23;19926;-92
2021/01/19 16:16:22;;;;;;;;;;;;;;;13.19;63.25;100536.03;4942139;29;19922;-88
2021/01/19 16:18:56;;;;;;;;;;;;;;;12.81;64.30;100531.16;4940691;29;19925;-89
2021/01/19 16:21:26;;;;;;;;;;;;;;;12.55;65.90;100556.22;4930896;29;19919;-89
2021/01/19 16:23:52;;;;;;;;;;;;;;;13.65;62.71;100530.38;4920208;29;19934;-87
2021/01/19 16:26:20;;;;;;;;;;;;;;;12.97;64.54;100539.22;4918277;29;20349;-86
2021/01/19 16:28:46;;;;;;;;;;;;;;;12.51;65.03;100542.94;4920025;29;19930;-84
2021/01/19 16:31:15;;;;;;;;;;;;;;;13.87;61.63;100545.25;4907817;29;19919;-84
2021/01/19 16:33:40;;;;;;;;;;;;;;;12.59;63.82;100535.19;4929400;29;19969;-88
2021/01/19 16:36:06;;;;;;;;;;;;;;;13.03;63.63;100550.56;4923908;29;19920;-89
2021/01/19 16:38:31;;;;;;;;;;;;;;;12.49;65.43;100534.03;4936995;29;19958;-87
2021/01/19 16:40:58;;;;;;;;;;;;;;;12.40;64.64;100551.72;4922078;29;19974;-85
2021/01/19 16:43:23;;;;;;;;;;;;;;;12.84;63.53;100544.53;4921338;29;19927;-88
2021/01/19 16:45:49;;;;;;;;;;;;;;;13.06;63.78;100533.22;4919639;29;19919;-87
2021/01/19 16:48:14;;;;;;;;;;;;;;;13.29;61.83;100539.91;4898601;29;20018;-86
2021/01/19 16:50:39;;;;;;;;;;;;;;;13.05;62.75;100540.47;4913073;29;20021;-87
2021/01/19 16:53:07;;;;;;;;;;;;;;;13.45;61.43;100528.94;4914891;29;20029;-88
2021/01/19 16:55:32;;;;;;;;;;;;;;;13.47;61.03;100537.88;4899115;29;19923;-87
2021/01/19 16:57:58;;;;;;;;;;;;;;;13.41;60.63;100525.56;4914815;29;20009;-85
2021/01/19 17:00:23;;;;;;;;;;;;;;;13.83;59.97;100525.56;4919463;29;20036;-86
2021/01/19 17:02:49;;;;;;;;;;;;;;;13.89;60.28;100527.00;4919770;29;20304;-87
2021/01/19 17:05:14;;;;;;;;;;;;;;;13.34;61.11;100516.06;4917668;29;20359;-86
2021/01/19 17:07:39;;;;;;;;;;;;;;;14.20;59.02;100523.09;4917927;29;19919;-87
2021/01/19 17:10:05;;;;;;;;;;;;;;;13.51;60.17;100523.09;4926412;29;19937;-90
2021/01/19 17:12:30;;;;;;;;;;;;;;;12.90;62.43;100530.59;4935659;29;19923;-90
2021/01/19 17:14:55;;;;;;;;;;;;;;;13.36;61.07;100513.22;4933103;29;21542;-89
2021/01/19 17:17:21;;;;;;;;;;;;;;;13.22;61.82;100516.81;4921131;29;19919;-88
2021/01/19 17:19:46;;;;;;;;;;;;;;;13.07;62.12;100524.09;4938137;29;20016;-87
2021/01/19 17:22:12;;;;;;;;;;;;;;;12.82;62.01;100538.31;4937853;29;19929;-88
2021/01/19 17:24:37;;;;;;;;;;;;;;;12.58;62.92;100522.59;4937590;29;19919;-88
2021/01/19 17:27:02;;;;;;;;;;;;;;;14.19;59.10;100532.22;4937490;29;19923;-84
2021/01/19 17:29:35;;;;;;;;;;;;;;;13.59;59.79;100528.06;4936955;29;20010;-86
2021/01/19 17:32:01;;;;;;;;;;;;;;;13.30;60.84;100522.66;4940098;29;19919;-91
2021/01/19 17:34:31;;;;;;;;;;;;;;;12.72;61.82;100533.47;4925190;29;19925;-92
2021/01/19 17:37:02;;;;;;;;;;;;;;;13.19;61.09;100534.16;4950036;23;19970;-91
2021/01/19 17:39:27;;;;;;;;;;;;;;;13.19;60.80;100527.88;4940662;29;19926;-91
2021/01/19 17:42:16;;;;;;;;;;;;;;;13.67;58.86;100533.00;4956715;23;19960;-94